Time;durP1;ratioP1;P1;durP2;ratioP2;P2;SDS_P1;SDS_P2;PMS_P1;PMS_P2;Temp;Humidity;BMP_temperature;BMP_pressure;BME280_temperature;BME280_humidity;BME280_pressure;Samples;Min_cycle;Max_cycle;Signal;HPM_P1;HPM_P2
2022/10/06 17:18:32;;;;;;;13.13;10.85;;;;;;;;;;10149017;27;20487;-64
2022/10/06 17:23:27;;;;;;;16.55;12.25;;;;;;;;;;10128060;28;20045;-64
2022/10/06 17:28:20;;;;;;;16.42;14.52;;;;;;;;;;10127013;28;20056;-64
2022/10/06 17:33:16;;;;;;;19.73;13.93;;;;;;;;;;10131012;28;20052;-64
2022/10/06 17:38:09;;;;;;;16.17;13.80;;;;;;;;;;10139395;28;20446;-63
2022/10/06 17:43:05;;;;;;;20.48;13.52;;;;;;;;;;10129419;28;20127;-64
2022/10/06 17:47:59;;;;;;;14.90;13.35;;;;;;;;;;10126463;28;20114;-64
2022/10/06 17:52:53;;;;;;;17.88;13.68;;;;;;;;;;10131019;28;20056;-63
2022/10/06 17:57:47;;;;;;;15.90;13.70;;;;;;;;;;10130910;28;20134;-64
2022/10/06 18:02:41;;;;;;;23.65;14.45;;;;;;;;;;10139072;28;20048;-63
2022/10/06 18:07:37;;;;;;;22.38;16.33;;;;;;;;;;10135031;28;20076;-64
2022/10/06 18:12:34;;;;;;;21.63;13.48;;;;;;;;;;10138356;28;20045;-63
2022/10/06 18:17:28;;;;;;;22.02;14.38;;;;;;;;;;10137897;28;20056;-63
2022/10/06 18:22:22;;;;;;;16.48;14.55;;;;;;;;;;10128921;28;20052;-63
2022/10/06 18:27:16;;;;;;;21.73;15.13;;;;;;;;;;10119896;28;20049;-63
2022/10/06 18:32:11;;;;;;;17.13;15.30;;;;;;;;;;10104307;28;20122;-64
2022/10/06 18:37:25;;;;;;;20.23;14.85;;;;;;;;;;10099431;28;20154;-64
2022/10/06 18:42:19;;;;;;;17.30;14.57;;;;;;;;;;10104598;28;20080;-65
2022/10/06 18:52:25;;;;;;;14.93;13.50;;;;;;;;;;10104458;28;20041;-65
2022/10/06 18:57:18;;;;;;;16.45;14.18;;;;;;;;;;10100274;28;20139;-65
2022/10/06 19:02:19;;;;;;;18.70;14.57;;;;;;;;;;10101966;28;20174;-65
2022/10/06 19:07:14;;;;;;;16.73;14.52;;;;;;;;;;10105928;28;20045;-65
2022/10/06 19:12:08;;;;;;;21.13;15.45;;;;;;;;;;10105629;28;20049;-64
2022/10/06 19:17:23;;;;;;;18.98;16.63;;;;;;;;;;10101246;28;20148;-63
2022/10/06 19:22:23;;;;;;;20.20;15.98;;;;;;;;;;10102112;28;20056;-64
2022/10/06 19:27:19;;;;;;;21.90;15.88;;;;;;;;;;10104245;28;20052;-63
2022/10/06 19:32:17;;;;;;;20.60;16.70;;;;;;;;;;10103295;28;20051;-64
2022/10/06 19:37:11;;;;;;;18.08;16.27;;;;;;;;;;10103774;28;20056;-63
2022/10/06 19:47:16;;;;;;;18.08;16.30;;;;;;;;;;10103025;28;20049;-63
2022/10/06 19:52:11;;;;;;;24.38;17.45;;;;;;;;;;10102936;28;20041;-64
2022/10/06 19:57:05;;;;;;;16.70;15.00;;;;;;;;;;10098040;28;20049;-63
2022/10/06 20:02:01;;;;;;;19.13;17.02;;;;;;;;;;10093508;28;20053;-63
2022/10/06 20:06:54;;;;;;;23.85;18.05;;;;;;;;;;10101525;28;20403;-65
2022/10/06 20:11:49;;;;;;;19.45;17.45;;;;;;;;;;10096376;28;20044;-65
2022/10/06 20:16:43;;;;;;;20.58;16.80;;;;;;;;;;10091628;28;20471;-66
2022/10/06 20:21:38;;;;;;;17.17;15.48;;;;;;;;;;10096041;28;20061;-66
2022/10/06 20:26:34;;;;;;;18.15;15.70;;;;;;;;;;10098738;28;20051;-66
2022/10/06 20:31:29;;;;;;;16.90;14.98;;;;;;;;;;10102639;28;20592;-65
2022/10/06 20:36:42;;;;;;;20.77;15.90;;;;;;;;;;10101842;28;20041;-66
2022/10/06 20:41:37;;;;;;;18.63;15.73;;;;;;;;;;10099513;28;20049;-65
2022/10/06 20:46:32;;;;;;;21.27;14.77;;;;;;;;;;10102021;28;20057;-66
2022/10/06 20:51:25;;;;;;;21.60;17.15;;;;;;;;;;10100433;28;20064;-65
2022/10/06 20:56:20;;;;;;;19.20;16.83;;;;;;;;;;10102035;28;20045;-65
2022/10/06 21:01:14;;;;;;;20.42;18.50;;;;;;;;;;10103893;28;20049;-66
2022/10/06 21:06:08;;;;;;;22.65;16.83;;;;;;;;;;10097725;28;20084;-66
2022/10/06 21:11:04;;;;;;;28.67;20.50;;;;;;;;;;10099389;28;20080;-65
2022/10/06 21:15:59;;;;;;;30.83;21.00;;;;;;;;;;10101621;28;20063;-66
2022/10/06 21:20:55;;;;;;;23.38;20.70;;;;;;;;;;10102676;28;20462;-66
2022/10/06 21:25:49;;;;;;;24.38;21.83;;;;;;;;;;10102153;28;20442;-66
2022/10/06 21:30:47;;;;;;;23.88;21.67;;;;;;;;;;10095221;28;20053;-65
2022/10/06 21:35:45;;;;;;;25.77;22.38;;;;;;;;;;10097431;28;20123;-65
2022/10/06 21:40:39;;;;;;;25.83;22.30;;;;;;;;;;10094828;28;20420;-66
2022/10/06 21:45:37;;;;;;;23.90;21.35;;;;;;;;;;10095189;28;20085;-66
2022/10/06 21:50:32;;;;;;;27.10;24.17;;;;;;;;;;10101026;28;20456;-66
2022/10/06 21:55:29;;;;;;;24.45;21.95;;;;;;;;;;10096009;28;20060;-65
2022/10/06 22:00:23;;;;;;;32.63;23.02;;;;;;;;;;10101239;28;20079;-66
2022/10/06 22:05:17;;;;;;;24.90;20.63;;;;;;;;;;10106223;28;20621;-66
2022/10/06 22:10:12;;;;;;;24.05;20.42;;;;;;;;;;10091870;28;20056;-66
2022/10/06 22:15:07;;;;;;;26.55;20.85;;;;;;;;;;10090692;28;20057;-66
2022/10/06 22:20:04;;;;;;;26.48;21.65;;;;;;;;;;10089187;28;20052;-66
2022/10/06 22:24:58;;;;;;;23.92;21.25;;;;;;;;;;10089468;28;20049;-65
2022/10/06 22:29:54;;;;;;;24.88;22.13;;;;;;;;;;10091825;28;20050;-65
2022/10/06 22:34:49;;;;;;;25.15;21.88;;;;;;;;;;10086117;28;20041;-65
2022/10/06 22:39:44;;;;;;;23.65;21.23;;;;;;;;;;10102756;28;20098;-65
2022/10/06 22:44:38;;;;;;;23.70;21.35;;;;;;;;;;10111120;28;20053;-64
2022/10/06 22:49:32;;;;;;;22.90;20.33;;;;;;;;;;10096784;28;20056;-65
2022/10/06 22:54:28;;;;;;;24.05;21.67;;;;;;;;;;10110923;28;20092;-65
2022/10/06 22:59:23;;;;;;;26.88;22.95;;;;;;;;;;10111650;28;20411;-65
2022/10/06 23:04:18;;;;;;;23.88;21.00;;;;;;;;;;10096389;28;20454;-65
2022/10/06 23:09:13;;;;;;;23.73;20.05;;;;;;;;;;10100096;28;20056;-65
2022/10/06 23:14:07;;;;;;;29.52;25.02;;;;;;;;;;10100376;28;20052;-66
2022/10/06 23:19:01;;;;;;;30.75;25.15;;;;;;;;;;10102853;28;20057;-66
2022/10/06 23:23:59;;;;;;;29.67;24.73;;;;;;;;;;10109449;28;20389;-66
2022/10/06 23:29:01;;;;;;;27.90;22.23;;;;;;;;;;10098529;28;20123;-65
2022/10/06 23:33:55;;;;;;;28.02;23.40;;;;;;;;;;10096309;28;20103;-68
2022/10/06 23:38:50;;;;;;;30.73;21.90;;;;;;;;;;10099873;28;20049;-65
2022/10/06 23:43:45;;;;;;;29.75;23.83;;;;;;;;;;10092028;28;20528;-67
2022/10/06 23:48:40;;;;;;;28.73;23.52;;;;;;;;;;10104883;28;20056;-67
2022/10/06 23:53:34;;;;;;;28.35;25.08;;;;;;;;;;10098344;28;20059;-66
2022/10/06 23:58:29;;;;;;;25.35;22.77;;;;;;;;;;10100238;28;20178;-66
